createdAt,value
2022-12-25T00:02:26.101Z,55.88
2022-12-25T00:05:48.931Z,53.35
2022-12-25T00:09:11.188Z,59.72
2022-12-25T00:12:34.644Z,53.75
2022-12-25T00:15:56.999Z,40.28
2022-12-25T00:19:18.993Z,45.78
2022-12-25T00:22:41.023Z,48.58
2022-12-25T00:26:08.172Z,39.63
2022-12-25T00:29:30.260Z,47.90
2022-12-25T00:32:52.242Z,43.80
2022-12-25T00:36:16.845Z,48.00
2022-12-25T00:39:38.981Z,45.53
2022-12-25T00:43:00.935Z,42.85
2022-12-25T00:46:23.016Z,44.10
2022-12-25T00:49:45.551Z,47.17
2022-12-25T00:53:07.490Z,50.90
2022-12-25T00:56:29.525Z,42.25
2022-12-25T00:59:51.613Z,48.05
2022-12-25T01:03:13.645Z,55.85
2022-12-25T01:06:35.680Z,53.65
2022-12-25T01:10:16.526Z,47.13
2022-12-25T01:13:38.584Z,51.75
2022-12-25T01:17:00.619Z,48.67
2022-12-25T01:20:22.567Z,48.65
2022-12-25T01:23:45.143Z,54.55
2022-12-25T01:27:07.096Z,50.30
2022-12-25T01:30:29.359Z,55.58
2022-12-25T01:33:52.096Z,50.10
2022-12-25T01:37:14.152Z,47.80
2022-12-25T01:40:36.112Z,66.57
2022-12-25T01:44:14.272Z,57.58
2022-12-25T01:47:36.275Z,52.20
2022-12-25T01:51:06.584Z,51.38
2022-12-25T01:54:32.429Z,45.45
2022-12-25T01:57:54.797Z,47.17
2022-12-25T02:01:16.888Z,48.25
2022-12-25T02:04:43.761Z,45.25
2022-12-25T02:08:14.294Z,47.72
2022-12-25T02:11:54.621Z,43.45
2022-12-25T02:15:22.737Z,41.65
2022-12-25T02:18:54.714Z,43.15
2022-12-25T02:22:38.209Z,39.17
2022-12-25T02:26:26.519Z,35.33
2022-12-25T02:29:59.855Z,39.92
2022-12-25T02:33:50.131Z,40.53
2022-12-25T02:37:38.332Z,45.43
2022-12-25T02:41:07.914Z,41.28
2022-12-25T02:44:49.901Z,38.33
2022-12-25T02:48:32.005Z,39.33
2022-12-25T02:52:24.021Z,36.45
2022-12-25T02:56:07.624Z,37.55
2022-12-25T02:59:50.107Z,43.28
2022-12-25T03:03:33.581Z,35.08
2022-12-25T03:07:23.580Z,36.17
2022-12-25T03:11:08.496Z,32.03
2022-12-25T03:14:49.091Z,34.85
2022-12-25T03:21:54.851Z,39.05
2022-12-25T03:25:37.067Z,38.88
2022-12-25T03:28:59.074Z,33.53
2022-12-25T03:32:29.956Z,32.58
2022-12-25T03:36:09.495Z,37.00
2022-12-25T03:39:56.869Z,34.42
2022-12-25T03:43:30.794Z,30.50
2022-12-25T03:47:23.512Z,35.63
2022-12-25T03:51:10.308Z,35.17
2022-12-25T03:54:53.761Z,28.73
2022-12-25T03:58:43.386Z,34.13
2022-12-25T04:02:24.074Z,33.13
2022-12-25T04:06:04.561Z,27.63
2022-12-25T04:09:45.278Z,33.65
2022-12-25T04:13:25.814Z,34.33
2022-12-25T04:17:06.603Z,31.77
2022-12-25T04:20:47.359Z,34.90
2022-12-25T04:24:30.124Z,26.42
2022-12-25T04:28:10.672Z,32.25
2022-12-25T04:31:51.573Z,30.98
2022-12-25T04:35:32.290Z,30.90
2022-12-25T04:38:54.315Z,32.65
2022-12-25T04:42:17.521Z,31.90
2022-12-25T04:45:39.474Z,32.00
2022-12-25T04:49:01.455Z,36.13
2022-12-25T04:52:23.515Z,34.38
2022-12-25T04:55:45.645Z,31.58
2022-12-25T04:59:07.720Z,35.63
2022-12-25T05:02:29.855Z,35.60
2022-12-25T05:05:51.945Z,35.38
2022-12-25T05:09:13.894Z,30.00
2022-12-25T05:12:35.974Z,34.45
2022-12-25T05:15:58.067Z,39.20
2022-12-25T05:19:20.090Z,32.33
2022-12-25T05:22:42.637Z,35.65
2022-12-25T05:26:06.955Z,36.70
2022-12-25T05:29:28.926Z,34.80
2022-12-25T05:32:50.905Z,29.67
2022-12-25T05:36:14.465Z,28.02
2022-12-25T05:39:36.452Z,38.88
2022-12-25T05:42:58.600Z,29.67
2022-12-25T05:46:20.657Z,29.27
2022-12-25T05:49:43.096Z,31.02
2022-12-25T05:53:15.584Z,32.28
2022-12-25T05:56:37.906Z,35.63
2022-12-25T05:59:59.882Z,30.55
2022-12-25T06:03:22.188Z,28.35
2022-12-25T06:06:44.251Z,27.33
2022-12-25T06:10:07.115Z,30.23
2022-12-25T06:13:29.233Z,29.75
2022-12-25T06:16:52.830Z,26.73
2022-12-25T06:20:14.878Z,31.70
2022-12-25T06:23:38.567Z,31.83
2022-12-25T06:27:00.569Z,25.98
2022-12-25T06:30:22.921Z,26.25
2022-12-25T06:33:45.596Z,29.52
2022-12-25T06:37:07.705Z,25.73
2022-12-25T06:40:29.672Z,27.95
2022-12-25T06:43:53.883Z,37.58
2022-12-25T06:47:15.813Z,58.40
2022-12-25T06:50:43.402Z,40.53
2022-12-25T06:54:06.036Z,31.98
2022-12-25T06:57:28.044Z,50.03
2022-12-25T07:00:50.005Z,34.67
2022-12-25T07:04:36.821Z,31.08
2022-12-25T07:07:58.855Z,31.08
2022-12-25T07:11:21.769Z,25.75
2022-12-25T07:14:45.170Z,27.73
2022-12-25T07:18:08.442Z,33.05
2022-12-25T07:21:30.481Z,28.83
2022-12-25T07:24:52.467Z,29.48
2022-12-25T07:28:15.066Z,34.17
2022-12-25T07:31:38.497Z,31.95
2022-12-25T07:35:00.576Z,24.98
2022-12-25T07:38:22.664Z,25.90
2022-12-25T07:41:44.970Z,32.97
2022-12-25T07:45:10.208Z,29.67
2022-12-25T07:48:32.405Z,35.78
2022-12-25T07:51:54.409Z,31.77
2022-12-25T07:55:16.586Z,28.92
2022-12-25T07:58:39.373Z,28.73
2022-12-25T08:02:01.440Z,40.28
2022-12-25T08:05:23.600Z,30.83
2022-12-25T08:08:45.879Z,33.05
2022-12-25T08:12:07.938Z,32.45
2022-12-25T08:15:31.103Z,34.70
2022-12-25T08:18:53.927Z,36.28
2022-12-25T08:22:15.997Z,33.22
2022-12-25T08:25:37.937Z,29.98
2022-12-25T08:29:00.001Z,29.10
2022-12-25T08:32:21.973Z,33.40
2022-12-25T08:35:43.993Z,33.83
2022-12-25T08:39:06.054Z,51.70
2022-12-25T08:42:28.163Z,29.70
2022-12-25T08:45:50.245Z,63.85
2022-12-25T08:49:12.311Z,34.50
2022-12-25T08:52:34.420Z,29.40
2022-12-25T08:56:00.859Z,29.50
2022-12-25T08:59:22.843Z,29.30
2022-12-25T09:02:45.038Z,27.40
2022-12-25T09:06:10.869Z,26.85
2022-12-25T09:09:32.832Z,26.10
2022-12-25T09:12:54.783Z,32.08
2022-12-25T09:16:20.788Z,30.75
2022-12-25T09:19:42.917Z,31.65
2022-12-25T09:23:09.968Z,28.38
2022-12-25T09:26:35.416Z,32.85
2022-12-25T09:29:57.583Z,29.50
2022-12-25T09:33:21.346Z,33.38
2022-12-25T09:36:43.269Z,29.55
2022-12-25T09:40:06.074Z,32.13
2022-12-25T09:43:31.285Z,28.00
2022-12-25T09:46:58.918Z,29.40
2022-12-25T09:50:46.591Z,30.13
2022-12-25T09:54:33.269Z,31.40
2022-12-25T09:57:58.507Z,30.77
2022-12-25T10:01:40.816Z,39.13
2022-12-25T10:05:23.402Z,37.47
2022-12-25T10:09:21.267Z,34.63
2022-12-25T10:13:16.886Z,33.92
2022-12-25T10:17:08.495Z,31.55
2022-12-25T10:20:49.225Z,35.08
2022-12-25T10:24:35.615Z,34.30
2022-12-25T10:28:02.815Z,31.20
2022-12-25T10:31:27.991Z,33.50
2022-12-25T10:34:50.383Z,31.48
2022-12-25T10:38:18.397Z,30.63
2022-12-25T10:41:43.399Z,34.58
2022-12-25T10:45:09.154Z,35.70
2022-12-25T10:48:33.539Z,29.33
2022-12-25T10:51:55.528Z,33.38
2022-12-25T10:55:26.540Z,32.92
2022-12-25T10:58:50.408Z,26.83
2022-12-25T11:02:39.172Z,27.33
2022-12-25T11:06:03.033Z,27.85
2022-12-25T11:09:25.358Z,24.60
2022-12-25T11:12:47.501Z,27.55
2022-12-25T11:16:15.277Z,26.77
2022-12-25T11:19:37.340Z,23.38
2022-12-25T11:22:59.293Z,21.73
2022-12-25T11:26:21.770Z,20.15
2022-12-25T11:29:54.234Z,21.25
2022-12-25T11:33:18.209Z,16.70
2022-12-25T11:36:48.685Z,19.67
2022-12-25T11:40:21.187Z,21.48
2022-12-25T11:43:50.027Z,14.48
2022-12-25T11:47:39.402Z,14.93
2022-12-25T11:51:04.968Z,15.43
2022-12-25T11:54:32.123Z,16.30
2022-12-25T11:57:59.198Z,12.27
2022-12-25T12:02:01.936Z,16.17
2022-12-25T12:05:34.087Z,14.20
2022-12-25T12:09:17.582Z,12.98
2022-12-25T12:13:05.224Z,16.42
2022-12-25T12:16:27.485Z,40.90
2022-12-25T12:19:49.693Z,33.90
2022-12-25T12:23:16.681Z,18.20
2022-12-25T12:26:42.589Z,16.85
2022-12-25T12:30:07.707Z,18.92
2022-12-25T12:33:37.787Z,19.63
2022-12-25T12:37:06.460Z,15.70
2022-12-25T12:40:39.104Z,15.27
2022-12-25T12:44:04.685Z,12.88
2022-12-25T12:47:43.981Z,16.17
2022-12-25T12:51:12.507Z,15.95
2022-12-25T12:54:53.469Z,13.85
2022-12-25T13:02:32.150Z,14.32
2022-12-25T13:05:59.422Z,17.00
2022-12-25T13:09:30.410Z,16.10
2022-12-25T13:12:59.506Z,15.68
2022-12-25T13:16:36.207Z,16.27
2022-12-25T13:20:00.453Z,14.48
2022-12-25T13:23:35.980Z,14.55
2022-12-25T13:26:58.732Z,21.35
2022-12-25T13:30:22.038Z,16.90
2022-12-25T13:33:58.087Z,18.58
2022-12-25T13:37:25.978Z,16.13
2022-12-25T13:41:12.142Z,16.25
2022-12-25T13:44:39.628Z,15.45
2022-12-25T13:48:19.093Z,21.10
2022-12-25T13:51:41.262Z,20.80
2022-12-25T13:55:13.135Z,18.50
2022-12-25T13:58:37.187Z,17.77
2022-12-25T14:02:00.032Z,18.67
2022-12-25T14:05:26.794Z,20.00
2022-12-25T14:08:49.749Z,17.55
2022-12-25T14:12:18.970Z,18.15
2022-12-25T14:15:43.671Z,15.93
2022-12-25T14:19:29.077Z,17.02
2022-12-25T14:22:53.326Z,18.02
2022-12-25T14:26:29.456Z,18.67
2022-12-25T14:29:54.803Z,20.92
2022-12-25T14:33:20.524Z,18.63
2022-12-25T14:36:42.667Z,20.02
2022-12-25T14:40:30.922Z,17.23
2022-12-25T14:43:56.026Z,18.50
2022-12-25T14:47:20.240Z,17.13
2022-12-25T14:50:51.157Z,19.75
2022-12-25T14:54:20.025Z,23.65
2022-12-25T14:57:55.612Z,29.30
2022-12-25T15:01:34.638Z,27.17
2022-12-25T15:04:56.860Z,23.35
2022-12-25T15:08:22.391Z,23.63
2022-12-25T15:11:51.086Z,19.55
2022-12-25T15:15:13.047Z,19.92
2022-12-25T15:18:39.913Z,22.52
2022-12-25T15:22:02.562Z,21.13
2022-12-25T15:25:24.572Z,23.02
2022-12-25T15:28:46.621Z,23.52
2022-12-25T15:32:20.651Z,30.58
2022-12-25T15:35:44.449Z,28.73
2022-12-25T15:39:07.722Z,27.98
2022-12-25T15:42:29.611Z,26.25
2022-12-25T15:45:51.558Z,28.70
2022-12-25T15:49:15.364Z,27.98
2022-12-25T15:52:37.339Z,30.70
2022-12-25T15:55:59.273Z,23.55
2022-12-25T15:59:21.962Z,25.48
2022-12-25T16:02:44.341Z,24.60
2022-12-25T16:06:06.507Z,30.30
2022-12-25T16:09:28.500Z,28.00
2022-12-25T16:12:50.457Z,28.40
2022-12-25T16:16:12.507Z,26.10
2022-12-25T16:19:34.556Z,28.80
2022-12-25T16:22:56.512Z,27.85
2022-12-25T16:26:18.759Z,32.60
2022-12-25T16:29:42.293Z,31.65
2022-12-25T16:33:04.367Z,30.98
2022-12-25T16:36:27.159Z,29.52
2022-12-25T16:39:49.239Z,35.92
2022-12-25T16:43:11.146Z,36.58
2022-12-25T16:46:33.144Z,29.40
2022-12-25T16:49:55.101Z,32.45
2022-12-25T16:53:17.105Z,30.63
2022-12-25T16:56:39.132Z,36.30
2022-12-25T17:00:01.307Z,32.75
2022-12-25T17:03:23.391Z,32.55
2022-12-25T17:06:45.618Z,37.33
2022-12-25T17:10:08.275Z,41.05
2022-12-25T17:13:30.643Z,35.08
2022-12-25T17:16:53.141Z,30.30
2022-12-25T17:20:16.004Z,31.73
2022-12-25T17:23:38.985Z,34.97
2022-12-25T17:27:01.372Z,33.30
2022-12-25T17:30:33.949Z,37.58
2022-12-25T17:33:56.134Z,39.67
2022-12-25T17:37:18.669Z,35.95
2022-12-25T17:40:40.770Z,31.92
2022-12-25T17:44:03.130Z,28.05
2022-12-25T17:47:26.207Z,30.60
2022-12-25T17:50:48.920Z,30.77
2022-12-25T17:54:11.894Z,25.60
2022-12-25T17:57:34.694Z,27.40
2022-12-25T18:00:57.739Z,31.45
2022-12-25T18:04:20.190Z,26.70
2022-12-25T18:07:43.396Z,27.05
2022-12-25T18:11:09.808Z,28.95
2022-12-25T18:14:33.028Z,33.20
2022-12-25T18:17:55.419Z,26.80
2022-12-25T18:21:17.967Z,28.75
2022-12-25T18:24:41.353Z,34.75
2022-12-25T18:28:05.973Z,45.20
2022-12-25T18:31:32.913Z,35.45
